首页
METAR-TAF:

METAR-TAF

机场 :

Pensacola Regional Airport

彭萨科拉, 佛罗里达州, 美国

纬度: 30-28-41N, 经度: 087-11-13W, 海拔: 36米

当前天气观测

该预报发布于19分钟前的19:53 UTC
风速8节,风向,有时为16节阵风
温度 20°C
湿度 18%
气压 1027 hPa
能見度: 16.1公里
天空无云

METAR: KPNS 071953Z 36008G16KT 10SM CLR 20/M05 A3032 RMK AO2 SLP268 T02001050

时间: 14:12 (20:12 UTC)

预报

该预报发布于2小时和52分钟前的17:20 UTC
预报有效从07日的 18点(UTC)到 08日的 18点(UTC)
风速8节,风向北转东北
能見度: 10公里
少量云层高于25000英尺
从 08日的 0000点(UTC)
风速5节,风向
能見度: 10公里
天空无云
从 08日的 0600点(UTC)
风速5节,风向北转东北
能見度: 10公里
天空无云
从 08日的 1200点(UTC)
风速7节,风向东转东北
能見度: 10公里
天空无云

TAF: KPNS 071720Z 0718/0818 03008KT P6SM FEW250 FM080000 36005KT P6SM SKC FM080600 03005KT P6SM SKC FM081200 06007KT P6SM SKC

超过4000个机场的气象观测和天气预报(METAR&TAF报告)。

可查询的气象台以黄色和红色小点在地图上表示。

将鼠标移到小点上方,可查看气象台名称。

然后点击查看天气观测和预报。

如需切换地图:点击带黑十字的绿色按钮放大地图;点击带横线的绿色按钮缩小地图;或者点击绿色箭头查看邻近地区的地图。


METAR-TAF: